createdAt,value
2019-04-16T00:02:35.664Z,100562.30
2019-04-16T00:05:28.817Z,100563.64
2019-04-16T00:08:26.566Z,100573.42
2019-04-16T00:10:46.443Z,100576.42
2019-04-16T00:13:20.069Z,100575.35
2019-04-16T00:15:55.407Z,100572.08
2019-04-16T00:18:26.942Z,100566.19
2019-04-16T00:21:18.895Z,100570.53
2019-04-16T00:24:08.788Z,100568.67
2019-04-16T00:26:40.937Z,100570.57
2019-04-16T00:29:12.799Z,100575.45
2019-04-16T00:31:46.295Z,100565.52
2019-04-16T00:34:20.725Z,100568.25
2019-04-16T00:36:53.119Z,100569.34
2019-04-16T00:39:25.662Z,100583.17
2019-04-16T00:41:57.537Z,100577.80
2019-04-16T00:44:29.294Z,100575.64
2019-04-16T00:47:01.080Z,100568.07
2019-04-16T00:49:33.375Z,100569.19
2019-04-16T00:52:06.944Z,100566.22
2019-04-16T00:54:42.395Z,100574.83
2019-04-16T00:57:17.792Z,100571.62
2019-04-16T00:59:46.421Z,100573.77
2019-04-16T01:02:18.436Z,100581.35
2019-04-16T01:04:50.276Z,100580.77
2019-04-16T01:07:22.218Z,100587.81
2019-04-16T01:09:53.978Z,100582.96
2019-04-16T01:12:25.946Z,100587.02
2019-04-16T01:15:00.590Z,100592.94
2019-04-16T01:17:33.346Z,100600.52
2019-04-16T01:20:11.576Z,100598.08
2019-04-16T01:22:41.379Z,100596.47
2019-04-16T01:25:13.148Z,100600.78
2019-04-16T01:27:49.822Z,100595.67
2019-04-16T01:30:23.114Z,100602.41
2019-04-16T01:32:56.718Z,100606.98
2019-04-16T01:35:39.529Z,100607.27
2019-04-16T01:38:27.973Z,100604.84
2019-04-16T01:41:04.070Z,100604.05
2019-04-16T01:43:36.214Z,100606.47
2019-04-16T01:46:08.385Z,100604.56
2019-04-16T01:48:40.246Z,100616.98
2019-04-16T01:51:15.396Z,100618.34
2019-04-16T01:53:46.534Z,100615.65
2019-04-16T01:56:18.491Z,100614.84
2019-04-16T01:58:50.245Z,100617.77
2019-04-16T02:01:22.430Z,100615.91
2019-04-16T02:03:54.478Z,100625.06
2019-04-16T02:06:26.731Z,100619.67
2019-04-16T02:09:01.768Z,100626.70
2019-04-16T02:11:32.281Z,100631.27
2019-04-16T02:14:04.891Z,100631.27
2019-04-16T02:16:38.100Z,100635.59
2019-04-16T02:19:09.849Z,100637.50
2019-04-16T02:21:42.117Z,100638.86
2019-04-16T02:24:18.534Z,100634.54
2019-04-16T02:26:47.307Z,100637.27
2019-04-16T02:29:19.286Z,100636.20
2019-04-16T02:31:51.533Z,100642.39
2019-04-16T02:34:24.361Z,100648.58
2019-04-16T02:37:00.848Z,100648.58
2019-04-16T02:39:46.933Z,100648.31
2019-04-16T02:42:02.792Z,100655.33
2019-04-16T02:44:34.946Z,100657.23
2019-04-16T02:47:08.351Z,100659.69
2019-04-16T02:49:40.203Z,100663.98
2019-04-16T02:52:17.443Z,100669.66
2019-04-16T02:54:51.083Z,100668.85
2019-04-16T02:57:27.961Z,100664.26
2019-04-16T03:00:03.981Z,100664.81
2019-04-16T03:02:55.252Z,100662.95
2019-04-16T03:05:34.488Z,100676.70
2019-04-16T03:08:06.467Z,100672.66
2019-04-16T03:10:38.501Z,100677.23
2019-04-16T03:13:10.489Z,100678.05
2019-04-16T03:15:43.673Z,100686.14
2019-04-16T03:18:17.261Z,100686.42
2019-04-16T03:20:49.355Z,100686.41
2019-04-16T03:23:21.117Z,100689.39
2019-04-16T03:25:53.279Z,100688.83
2019-04-16T03:28:27.264Z,100694.78
2019-04-16T03:30:58.745Z,100704.50
2019-04-16T03:33:30.548Z,100704.50
2019-04-16T03:36:03.478Z,100706.64
2019-04-16T03:38:37.369Z,100710.96
2019-04-16T03:41:08.853Z,100716.08
2019-04-16T03:43:40.724Z,100715.53
2019-04-16T03:46:13.941Z,100721.75
2019-04-16T03:48:46.087Z,100730.08
2019-04-16T03:51:18.028Z,100730.63
2019-04-16T03:53:50.358Z,100739.52
2019-04-16T03:56:22.389Z,100740.62
2019-04-16T03:58:54.431Z,100740.08
2019-04-16T04:01:26.326Z,100745.48
2019-04-16T04:03:58.644Z,100746.55
2019-04-16T04:06:30.328Z,100745.72
2019-04-16T04:09:02.496Z,100757.06
2019-04-16T04:11:40.985Z,100752.47
2019-04-16T04:14:09.197Z,100756.52
2019-04-16T04:16:40.944Z,100762.72
2019-04-16T04:19:15.140Z,100768.12
2019-04-16T04:21:46.214Z,100768.91
2019-04-16T04:24:18.184Z,100771.08
2019-04-16T04:26:49.925Z,100772.44
2019-04-16T04:29:24.783Z,100778.91
2019-04-16T04:31:55.088Z,100781.05
2019-04-16T04:34:26.757Z,100782.40
2019-04-16T04:36:59.748Z,100783.75
2019-04-16T04:39:31.597Z,100781.33
2019-04-16T04:42:03.456Z,100783.75
2019-04-16T04:44:36.957Z,100788.34
2019-04-16T04:47:09.046Z,100788.08
2019-04-16T04:49:40.945Z,100787.80
2019-04-16T04:52:14.649Z,100793.75
2019-04-16T04:54:45.833Z,100788.88
2019-04-16T04:57:18.721Z,100789.42
2019-04-16T04:59:50.581Z,100785.91
2019-04-16T05:02:22.556Z,100794.55
2019-04-16T05:04:56.047Z,100791.05
2019-04-16T05:07:29.091Z,100796.17
2019-04-16T05:10:01.223Z,100795.10
2019-04-16T05:12:33.289Z,100798.05
2019-04-16T05:15:06.959Z,100792.38
2019-04-16T05:17:39.314Z,100795.63
2019-04-16T05:20:14.859Z,100799.95
2019-04-16T05:22:46.052Z,100804.00
2019-04-16T05:25:18.842Z,100799.92
2019-04-16T05:27:50.805Z,100796.43
2019-04-16T05:30:22.453Z,100809.38
2019-04-16T05:32:54.414Z,100802.91
2019-04-16T05:35:26.101Z,100809.09
2019-04-16T05:37:58.034Z,100805.88
2019-04-16T05:40:34.211Z,100806.16
2019-04-16T05:43:03.010Z,100803.98
2019-04-16T05:45:37.693Z,100806.67
2019-04-16T05:48:08.369Z,100800.44
2019-04-16T05:50:40.012Z,100810.12
2019-04-16T05:53:13.771Z,100809.55
2019-04-16T05:55:53.128Z,100818.17
2019-04-16T05:58:27.721Z,100818.45
2019-04-16T06:01:03.041Z,100813.05
2019-04-16T06:03:34.941Z,100815.19
2019-04-16T06:06:08.718Z,100813.55
2019-04-16T06:08:41.622Z,100816.52
2019-04-16T06:11:27.586Z,100819.44
2019-04-16T06:13:51.754Z,100814.33
2019-04-16T06:16:25.778Z,100815.16
2019-04-16T06:19:08.435Z,100814.06
2019-04-16T06:21:44.969Z,100818.38
2019-04-16T06:24:32.413Z,100813.45
2019-04-16T06:27:08.452Z,100812.04
2019-04-16T06:30:01.412Z,100811.17
2019-04-16T06:32:36.540Z,100818.70
2019-04-16T06:35:22.308Z,100821.66
2019-04-16T06:37:55.931Z,100825.65
2019-04-16T06:40:41.428Z,100831.60
2019-04-16T06:43:18.085Z,100832.67
2019-04-16T06:45:54.056Z,100833.73
2019-04-16T06:48:27.564Z,100829.67
2019-04-16T06:51:12.529Z,100831.30
2019-04-16T06:53:56.685Z,100830.44
2019-04-16T06:56:41.739Z,100837.45
2019-04-16T06:59:26.569Z,100837.66
2019-04-16T07:02:18.075Z,100831.45
2019-04-16T07:04:58.268Z,100839.73
2019-04-16T07:07:39.866Z,100835.39
2019-04-16T07:10:10.934Z,100837.46
2019-04-16T07:12:42.951Z,100840.61
2019-04-16T07:15:14.907Z,100842.39
2019-04-16T07:17:46.600Z,100847.55
2019-04-16T07:20:18.466Z,100843.08
2019-04-16T07:22:53.044Z,100845.97
2019-04-16T07:25:27.441Z,100841.95
2019-04-16T07:28:02.147Z,100845.95
2019-04-16T07:30:39.947Z,100840.70
2019-04-16T07:33:17.063Z,100844.90
2019-04-16T07:35:50.622Z,100843.84
2019-04-16T07:38:24.461Z,100854.19
2019-04-16T07:41:12.796Z,100849.02
2019-04-16T07:44:07.819Z,100851.44
2019-04-16T07:46:47.089Z,100853.36
2019-04-16T07:49:36.012Z,100853.90
2019-04-16T07:52:12.135Z,100864.02
2019-04-16T07:54:44.447Z,100868.88
2019-04-16T07:57:16.624Z,100862.97
2019-04-16T07:59:48.899Z,100858.94
2019-04-16T08:02:21.508Z,100867.59
2019-04-16T08:04:54.037Z,100860.66
2019-04-16T08:07:26.025Z,100859.02
2019-04-16T08:10:01.094Z,100857.33
2019-04-16T08:12:32.440Z,100856.36
2019-04-16T08:15:13.341Z,100852.82
2019-04-16T08:17:39.619Z,100838.13
2019-04-16T08:20:12.812Z,100848.72
2019-04-16T08:26:02.599Z,100834.44
2019-04-16T08:28:26.888Z,100836.94
2019-04-16T08:30:59.175Z,100841.27
2019-04-16T08:33:32.053Z,100843.91
2019-04-16T08:36:04.124Z,100838.39
2019-04-16T08:38:36.808Z,100843.30
2019-04-16T08:41:08.651Z,100844.48
2019-04-16T08:43:40.741Z,100838.52
2019-04-16T08:46:12.881Z,100840.08
2019-04-16T08:48:48.984Z,100837.52
2019-04-16T08:51:29.738Z,100827.91
2019-04-16T08:53:51.549Z,100841.59
2019-04-16T08:56:23.837Z,100843.06
2019-04-16T08:58:59.987Z,100854.77
2019-04-16T09:01:30.518Z,100858.87
2019-04-16T09:04:03.028Z,100860.55
2019-04-16T09:06:34.976Z,100868.69
2019-04-16T09:09:24.309Z,100869.23
2019-04-16T09:11:56.502Z,100870.56
2019-04-16T09:14:30.322Z,100875.13
2019-04-16T09:17:09.706Z,100876.43
2019-04-16T09:19:42.870Z,100874.66
2019-04-16T09:22:16.830Z,100879.34
2019-04-16T09:25:01.919Z,100880.06
2019-04-16T09:27:35.552Z,100870.16
2019-04-16T09:30:18.572Z,100876.97
2019-04-16T09:32:52.068Z,100873.42
2019-04-16T09:35:32.937Z,100871.98
2019-04-16T09:38:24.773Z,100875.81
2019-04-16T09:41:14.859Z,100880.02
2019-04-16T09:43:48.367Z,100884.89
2019-04-16T09:46:33.008Z,100882.09
2019-04-16T09:48:53.705Z,100889.91
2019-04-16T09:51:26.327Z,100887.54
2019-04-16T09:53:58.146Z,100890.92
2019-04-16T09:56:30.843Z,100889.94
2019-04-16T09:59:11.026Z,100885.43
2019-04-16T10:01:46.335Z,100897.48
2019-04-16T10:04:19.824Z,100895.66
2019-04-16T10:06:51.869Z,100890.03
2019-04-16T10:09:23.878Z,100888.02
2019-04-16T10:11:57.418Z,100905.09
2019-04-16T10:14:29.331Z,100896.89
2019-04-16T10:17:01.436Z,100899.42
2019-04-16T10:19:33.369Z,100897.86
2019-04-16T10:22:05.139Z,100894.66
2019-04-16T10:24:54.940Z,100901.73
2019-04-16T10:27:31.292Z,100901.84
2019-04-16T10:30:02.233Z,100905.32
2019-04-16T10:32:34.185Z,100910.53
2019-04-16T10:35:06.366Z,100908.61
2019-04-16T10:37:38.429Z,100913.55
2019-04-16T10:40:11.852Z,100915.47
2019-04-16T10:42:50.974Z,100923.11
2019-04-16T10:45:36.663Z,100924.27
2019-04-16T10:48:16.721Z,100925.82
2019-04-16T10:50:56.051Z,100916.43
2019-04-16T10:53:48.182Z,100912.83
2019-04-16T10:56:38.411Z,100918.22
2019-04-16T10:59:28.030Z,100907.48
2019-04-16T11:02:01.655Z,100906.72
2019-04-16T11:04:43.015Z,100899.62
2019-04-16T11:07:16.747Z,100912.75
2019-04-16T11:09:48.801Z,100914.64
2019-04-16T11:12:20.889Z,100915.33
2019-04-16T11:14:53.063Z,100913.55
2019-04-16T11:17:26.760Z,100914.19
2019-04-16T11:20:00.128Z,100914.19
2019-04-16T11:22:33.246Z,100904.72
2019-04-16T11:25:06.431Z,100913.89
2019-04-16T11:27:38.198Z,100920.27
2019-04-16T11:30:22.276Z,100922.65
2019-04-16T11:32:54.537Z,100922.83
2019-04-16T11:35:26.193Z,100931.58
2019-04-16T11:37:58.371Z,100934.70
2019-04-16T11:40:30.251Z,100945.07
2019-04-16T11:43:01.978Z,100942.28
2019-04-16T11:45:33.848Z,100942.58
2019-04-16T11:48:06.039Z,100944.64
2019-04-16T11:50:38.247Z,100949.91
2019-04-16T11:53:10.370Z,100940.27
2019-04-16T11:55:42.595Z,100946.55
2019-04-16T11:58:32.626Z,100950.67
2019-04-16T12:01:12.400Z,100953.65
2019-04-16T12:03:51.865Z,100955.89
2019-04-16T12:06:41.675Z,100948.08
2019-04-16T12:09:24.315Z,100945.39
2019-04-16T12:12:14.947Z,100943.48
2019-04-16T12:15:00.863Z,100943.45
2019-04-16T12:17:36.702Z,100943.69
2019-04-16T12:20:16.214Z,100947.41
2019-04-16T12:22:49.700Z,100947.34
2019-04-16T12:25:23.356Z,100943.73
2019-04-16T12:28:08.299Z,100939.67
2019-04-16T12:30:43.119Z,100943.45
2019-04-16T12:33:22.808Z,100941.52
2019-04-16T12:36:00.329Z,100940.14
2019-04-16T12:38:34.065Z,100936.86
2019-04-16T12:41:24.188Z,100942.22
2019-04-16T12:44:13.905Z,100935.07
2019-04-16T12:47:05.740Z,100937.61
2019-04-16T12:49:59.005Z,100935.31
2019-04-16T12:52:51.993Z,100940.62
2019-04-16T12:55:31.412Z,100940.23
2019-04-16T12:58:11.430Z,100940.77
2019-04-16T13:00:47.593Z,100935.02
2019-04-16T13:03:20.989Z,100935.55
2019-04-16T13:06:11.195Z,100948.66
2019-04-16T13:08:44.803Z,100945.26
2019-04-16T13:11:18.196Z,100949.66
2019-04-16T13:13:54.468Z,100953.73
2019-04-16T13:16:27.763Z,100948.96
2019-04-16T13:19:06.876Z,100952.06
2019-04-16T13:21:49.614Z,100949.88
2019-04-16T13:24:28.539Z,100948.31
2019-04-16T13:27:02.445Z,100952.92
2019-04-16T13:29:34.528Z,100963.03
2019-04-16T13:32:07.080Z,100963.45
2019-04-16T13:34:38.755Z,100961.94
2019-04-16T13:37:11.437Z,100961.45
2019-04-16T13:39:51.703Z,100964.99
2019-04-16T13:42:24.152Z,100969.34
2019-04-16T13:44:58.504Z,100969.91
2019-04-16T13:47:56.934Z,100971.84
2019-04-16T13:50:39.961Z,100964.00
2019-04-16T13:53:17.702Z,100967.25
2019-04-16T13:55:57.451Z,100966.18
2019-04-16T13:58:36.889Z,100967.01
2019-04-16T14:01:22.564Z,100971.58
2019-04-16T14:03:57.098Z,100974.83
2019-04-16T14:06:29.006Z,100978.34
2019-04-16T14:09:00.713Z,100969.93
2019-04-16T14:11:33.504Z,100976.38
2019-04-16T14:14:07.628Z,100979.05
2019-04-16T14:16:40.941Z,100982.23
2019-04-16T14:19:13.073Z,100982.16
2019-04-16T14:21:44.954Z,100981.00
2019-04-16T14:24:16.904Z,100975.49
2019-04-16T14:26:48.870Z,100983.80
2019-04-16T14:29:20.736Z,100987.30
2019-04-16T14:31:52.690Z,100982.63
2019-04-16T14:34:38.695Z,100976.30
2019-04-16T14:37:10.786Z,100987.38
2019-04-16T14:39:47.023Z,100987.12
2019-04-16T14:42:22.414Z,100986.83
2019-04-16T14:44:55.361Z,100987.31
2019-04-16T14:47:29.915Z,100982.97
2019-04-16T14:50:01.127Z,100978.42
2019-04-16T14:52:33.099Z,100979.05
2019-04-16T14:55:13.878Z,100978.28
2019-04-16T14:58:03.556Z,100974.50
2019-04-16T15:00:53.748Z,100981.50
2019-04-16T15:03:27.347Z,100976.63
2019-04-16T15:06:12.867Z,100986.92
2019-04-16T15:09:11.514Z,100987.47
2019-04-16T15:12:02.164Z,100988.58
2019-04-16T15:14:38.992Z,100987.50
2019-04-16T15:17:15.468Z,100986.09
2019-04-16T15:19:49.279Z,100990.88
2019-04-16T15:22:39.463Z,100990.86
2019-04-16T15:25:21.775Z,100997.06
2019-04-16T15:28:08.064Z,100991.27
2019-04-16T15:31:01.531Z,100995.36
2019-04-16T15:33:38.982Z,100991.25
2019-04-16T15:36:19.475Z,100992.77
2019-04-16T15:39:03.978Z,100993.44
2019-04-16T15:41:54.374Z,100993.37
2019-04-16T15:44:31.887Z,100989.30
2019-04-16T15:47:04.459Z,100996.25
2019-04-16T15:49:49.537Z,100990.59
2019-04-16T15:52:21.763Z,100994.81
2019-04-16T15:55:10.853Z,100996.29
2019-04-16T15:57:50.650Z,101002.31
2019-04-16T16:00:37.093Z,101009.50
2019-04-16T16:03:26.972Z,101003.05
2019-04-16T16:06:00.370Z,101012.33
2019-04-16T16:08:50.558Z,101021.87
2019-04-16T16:11:27.441Z,101014.45
2019-04-16T16:14:01.146Z,101025.45
2019-04-16T16:16:41.720Z,101023.41
2019-04-16T16:19:10.889Z,101029.48
2019-04-16T16:21:40.555Z,101034.97
2019-04-16T16:24:12.480Z,101033.16
2019-04-16T16:26:45.639Z,101044.86
2019-04-16T16:29:17.540Z,101047.36
2019-04-16T16:31:49.412Z,101043.33
2019-04-16T16:34:21.467Z,101043.63
2019-04-16T16:36:53.535Z,101036.89
2019-04-16T16:39:25.501Z,101044.78
2019-04-16T16:41:57.567Z,101046.68
2019-04-16T16:44:29.220Z,101052.66
2019-04-16T16:47:20.738Z,101052.68
2019-04-16T16:49:52.834Z,101061.64
2019-04-16T16:52:44.637Z,101066.52
2019-04-16T16:55:18.035Z,101070.05
2019-04-16T16:58:11.193Z,101073.05
2019-04-16T17:00:56.351Z,101070.91
2019-04-16T17:03:31.416Z,101076.61
2019-04-16T17:06:03.619Z,101085.55
2019-04-16T17:08:35.717Z,101087.98
2019-04-16T17:11:16.036Z,101092.04
2019-04-16T17:13:41.214Z,101091.77
2019-04-16T17:16:14.461Z,101093.39
2019-04-16T17:18:46.304Z,101099.08
2019-04-16T17:21:18.432Z,101103.69
2019-04-16T17:23:51.428Z,101106.95
2019-04-16T17:26:23.185Z,101099.11
2019-04-16T17:28:54.742Z,101108.33
2019-04-16T17:31:26.597Z,101114.00
2019-04-16T17:33:59.695Z,101104.53
2019-04-16T17:36:31.748Z,101103.73
2019-04-16T17:39:09.067Z,101112.39
2019-04-16T17:41:42.645Z,101117.51
2019-04-16T17:44:17.579Z,101115.08
2019-04-16T17:46:52.423Z,101118.61
2019-04-16T17:49:31.954Z,101116.69
2019-04-16T17:52:11.607Z,101117.79
2019-04-16T17:54:48.412Z,101125.08
2019-04-16T17:57:38.258Z,101127.52
2019-04-16T18:00:18.517Z,101135.61
2019-04-16T18:03:03.087Z,101128.58
2019-04-16T18:05:33.815Z,101132.89
2019-04-16T18:08:13.302Z,101135.31
2019-04-16T18:10:59.120Z,101138.04
2019-04-16T18:13:38.701Z,101136.41
2019-04-16T18:16:21.122Z,101136.67
2019-04-16T18:18:54.818Z,101136.39
2019-04-16T18:21:28.515Z,101129.90
2019-04-16T18:24:04.968Z,101135.30
2019-04-16T18:26:41.257Z,101135.28
2019-04-16T18:29:31.524Z,101144.72
2019-04-16T18:32:02.692Z,101138.24
2019-04-16T18:34:36.294Z,101140.96
2019-04-16T18:37:22.235Z,101135.27
2019-04-16T18:40:06.253Z,101131.47
2019-04-16T18:42:45.672Z,101124.96
2019-04-16T18:45:19.279Z,101123.59
2019-04-16T18:48:12.971Z,101128.91
2019-04-16T18:50:41.694Z,101132.92
2019-04-16T18:53:13.600Z,101127.73
2019-04-16T18:55:45.465Z,101126.34
2019-04-16T18:58:17.115Z,101126.85
2019-04-16T19:00:50.414Z,101129.23
2019-04-16T19:03:22.485Z,101124.89
2019-04-16T19:05:54.359Z,101119.73
2019-04-16T19:08:40.540Z,101122.97
2019-04-16T19:10:59.711Z,101122.98
2019-04-16T19:13:31.883Z,101125.95
2019-04-16T19:16:06.604Z,101121.37
2019-04-16T19:18:41.037Z,101121.13
2019-04-16T19:21:12.700Z,101123.85
2019-04-16T19:23:44.993Z,101127.91
2019-04-16T19:26:16.814Z,101121.73
2019-04-16T19:28:48.872Z,101124.19
2019-04-16T19:31:23.092Z,101118.24
2019-04-16T19:33:54.405Z,101120.12
2019-04-16T19:36:27.513Z,101123.66
2019-04-16T19:38:59.523Z,101118.55
2019-04-16T19:41:31.669Z,101116.09
2019-04-16T19:44:07.216Z,101115.84
2019-04-16T19:46:37.356Z,101122.33
2019-04-16T19:49:09.412Z,101123.66
2019-04-16T19:51:41.970Z,101123.14
2019-04-16T19:54:14.054Z,101126.38
2019-04-16T19:56:51.124Z,101127.21
2019-04-16T19:59:20.347Z,101126.11
2019-04-16T20:01:55.995Z,101125.59
2019-04-16T20:04:25.505Z,101116.15
2019-04-16T20:07:01.164Z,101128.81
2019-04-16T20:09:30.765Z,101125.03
2019-04-16T20:12:02.935Z,101131.52
2019-04-16T20:14:36.228Z,101135.55
2019-04-16T20:17:08.389Z,101127.45
2019-04-16T20:19:42.097Z,101127.17
2019-04-16T20:22:13.953Z,101132.56
2019-04-16T20:24:46.428Z,101134.19
2019-04-16T20:27:19.688Z,101135.81
2019-04-16T20:29:51.689Z,101131.75
2019-04-16T20:32:24.777Z,101133.62
2019-04-16T20:34:56.739Z,101126.62
2019-04-16T20:37:28.595Z,101123.64
2019-04-16T20:40:00.773Z,101122.56
2019-04-16T20:42:33.147Z,101117.42
2019-04-16T20:45:07.159Z,101123.09
2019-04-16T20:47:41.893Z,101122.80
2019-04-16T20:50:14.260Z,101117.92
2019-04-16T20:52:46.227Z,101120.11
2019-04-16T20:55:18.269Z,101119.28
2019-04-16T20:57:50.278Z,101116.84
2019-04-16T21:00:33.362Z,101119.29
2019-04-16T21:03:21.094Z,101115.24
2019-04-16T21:05:38.849Z,101111.98
2019-04-16T21:08:10.713Z,101113.33
2019-04-16T21:10:42.460Z,101110.63
2019-04-16T21:13:16.156Z,101113.61
2019-04-16T21:15:47.771Z,101104.97
2019-04-16T21:18:19.700Z,101109.30
2019-04-16T21:20:51.866Z,101106.05
2019-04-16T21:23:24.020Z,101108.25
2019-04-16T21:25:55.884Z,101105.54
2019-04-16T21:28:44.747Z,101113.40
2019-04-16T21:31:18.344Z,101112.87
2019-04-16T21:33:53.094Z,101111.80
2019-04-16T21:36:38.780Z,101110.98
2019-04-16T21:39:17.213Z,101112.05
2019-04-16T21:41:45.989Z,101115.58
2019-04-16T21:44:17.965Z,101110.44
2019-04-16T21:46:52.323Z,101103.43
2019-04-16T21:49:37.327Z,101108.30
2019-04-16T21:52:08.588Z,101106.41
2019-04-16T21:54:40.503Z,101111.02
2019-04-16T21:57:13.283Z,101111.84
2019-04-16T21:59:45.726Z,101109.17
2019-04-16T22:02:24.729Z,101109.17
2019-04-16T22:04:57.125Z,101106.72
2019-04-16T22:07:28.882Z,101104.58
2019-04-16T22:10:00.415Z,101106.72
2019-04-16T22:12:32.297Z,101104.58
2019-04-16T22:15:05.375Z,101109.70
2019-04-16T22:17:37.131Z,101109.70
2019-04-16T22:20:09.204Z,101103.23
2019-04-16T22:22:43.678Z,101099.98
2019-04-16T22:25:14.984Z,101094.89
2019-04-16T22:27:46.946Z,101098.37
2019-04-16T22:30:19.393Z,101097.30
2019-04-16T22:32:52.000Z,101098.37
2019-04-16T22:35:23.862Z,101094.61
2019-04-16T22:37:56.218Z,101088.92
2019-04-16T22:40:29.535Z,101086.52
2019-04-16T22:43:15.430Z,101088.42
2019-04-16T22:45:52.079Z,101084.63
2019-04-16T22:48:22.635Z,101082.76
2019-04-16T22:50:54.797Z,101080.58
2019-04-16T22:53:26.837Z,101078.71
2019-04-16T22:55:59.552Z,101080.31
2019-04-16T22:58:51.281Z,101081.94
2019-04-16T23:01:24.776Z,101080.59
2019-04-16T23:03:56.736Z,101077.37
2019-04-16T23:06:28.908Z,101073.58
2019-04-16T23:09:00.578Z,101071.44
2019-04-16T23:11:33.866Z,101074.94
2019-04-16T23:14:06.745Z,101068.73
2019-04-16T23:16:41.932Z,101074.42
2019-04-16T23:19:12.215Z,101077.12
2019-04-16T23:21:44.157Z,101074.18
2019-04-16T23:24:15.930Z,101077.37
2019-04-16T23:26:49.128Z,101078.98
2019-04-16T23:29:21.037Z,101080.34
2019-04-16T23:31:56.121Z,101080.34
2019-04-16T23:34:26.559Z,101081.97
2019-04-16T23:36:58.932Z,101080.38
2019-04-16T23:39:33.608Z,101076.89
2019-04-16T23:42:04.827Z,101072.02
2019-04-16T23:44:47.407Z,101074.72
2019-04-16T23:47:33.402Z,101069.61
2019-04-16T23:50:09.984Z,101075.28
2019-04-16T23:52:56.181Z,101069.88
2019-04-16T23:55:41.542Z,101064.73
2019-04-16T23:58:16.271Z,101066.92
